Time;durP1;ratioP1;P1;durP2;ratioP2;P2;SDS_P1;SDS_P2;PMS_P1;PMS_P2;Temp;Humidity;BMP_temperature;BMP_pressure;BME280_temperature;BME280_humidity;BME280_pressure;Samples;Min_cycle;Max_cycle;Signal;HPM_P1;HPM_P2
2022/04/16 00:00:08;;;;;;;3.78;2.80;;;;;;;15.51;53.34;102901.25;4925344;28;20451;-77
2022/04/16 00:02:34;;;;;;;5.57;2.83;;;;;;;15.52;53.27;102907.34;4937920;28;20019;-77
2022/04/16 00:04:59;;;;;;;4.68;2.92;;;;;;;15.52;53.32;102902.13;4953509;28;20034;-77
2022/04/16 00:07:24;;;;;;;4.88;2.60;;;;;;;15.51;53.19;102905.59;4955070;28;20539;-74
2022/04/16 00:09:50;;;;;;;5.03;3.00;;;;;;;15.48;53.34;102902.03;4954811;28;20104;-76
2022/04/16 00:12:15;;;;;;;5.63;3.00;;;;;;;15.50;53.22;102899.47;4954773;28;20019;-76
2022/04/16 00:14:40;;;;;;;4.63;2.63;;;;;;;15.50;53.25;102909.88;4953285;28;20046;-77
2022/04/16 00:17:06;;;;;;;5.15;3.00;;;;;;;15.47;53.36;102900.25;4955610;28;20014;-75
2022/04/16 00:19:32;;;;;;;4.80;3.15;;;;;;;15.49;53.46;102902.91;4954582;28;20027;-77
2022/04/16 00:21:59;;;;;;;3.30;2.63;;;;;;;15.49;53.24;102902.91;4955001;28;20096;-76
2022/04/16 00:24:28;;;;;;;4.68;3.33;;;;;;;15.49;53.32;102900.31;4953129;28;20054;-75
2022/04/16 00:26:53;;;;;;;4.68;2.83;;;;;;;15.46;53.30;102903.66;4954878;28;22721;-75
2022/04/16 00:29:19;;;;;;;5.07;3.17;;;;;;;15.47;53.40;102905.44;4953150;28;20011;-76
2022/04/16 00:31:45;;;;;;;4.70;2.78;;;;;;;15.47;53.24;102905.44;4953151;28;20029;-76
2022/04/16 00:34:14;;;;;;;4.82;3.08;;;;;;;15.47;53.34;102904.56;4955030;28;20023;-75
2022/04/16 00:36:43;;;;;;;4.72;2.63;;;;;;;15.46;53.21;102903.66;4954056;28;20356;-75
2022/04/16 00:39:09;;;;;;;5.03;3.03;;;;;;;15.47;53.33;102907.16;4954564;28;20054;-74
2022/04/16 00:41:34;;;;;;;5.13;3.28;;;;;;;15.47;53.21;102910.63;4954579;28;20043;-77
2022/04/16 00:44:00;;;;;;;3.88;2.70;;;;;;;15.46;53.21;102914.06;4955070;28;20030;-75
2022/04/16 00:46:25;;;;;;;4.40;3.03;;;;;;;15.46;53.28;102914.06;4936626;28;20029;-74
2022/04/16 00:48:51;;;;;;;4.43;3.00;;;;;;;15.46;53.35;102914.06;4954660;28;20420;-75
2022/04/16 00:51:16;;;;;;;5.30;2.70;;;;;;;15.45;53.26;102909.69;4936198;28;20054;-78
2022/04/16 00:53:42;;;;;;;4.55;2.63;;;;;;;15.45;53.27;102912.31;4937880;28;20033;-76
2022/04/16 00:56:10;;;;;;;4.88;2.90;;;;;;;15.44;53.16;102905.31;4952473;28;20019;-77
2022/04/16 00:58:38;;;;;;;4.25;2.65;;;;;;;15.42;53.44;102901.75;4954245;28;20030;-76
2022/04/16 01:01:03;;;;;;;5.95;2.95;;;;;;;15.44;53.28;102910.53;4953224;28;20015;-75
2022/04/16 01:03:29;;;;;;;5.35;3.00;;;;;;;15.45;53.23;102906.19;4937759;28;20369;-75
2022/04/16 01:05:55;;;;;;;5.35;2.90;;;;;;;15.44;53.22;102910.53;4938202;28;20035;-77
2022/04/16 01:08:22;;;;;;;5.38;3.22;;;;;;;15.42;53.30;102901.75;4954017;28;20027;-77
2022/04/16 01:10:48;;;;;;;4.00;3.00;;;;;;;15.43;53.18;102906.13;4953061;28;20023;-78
2022/04/16 01:13:14;;;;;;;4.90;3.20;;;;;;;15.42;53.16;102900.88;4954200;28;20023;-74
2022/04/16 01:15:41;;;;;;;4.38;3.08;;;;;;;15.43;53.34;102913.06;4953076;28;20019;-75
2022/04/16 01:18:07;;;;;;;4.65;2.97;;;;;;;15.43;53.40;102913.94;4937085;28;20034;-77
2022/04/16 01:20:34;;;;;;;3.85;2.65;;;;;;;15.42;53.24;102906.94;4953477;28;20031;-73
2022/04/16 01:23:00;;;;;;;4.68;2.97;;;;;;;15.44;53.23;102909.63;4952327;28;20038;-73
2022/04/16 01:25:27;;;;;;;4.90;2.97;;;;;;;15.41;53.16;102915.56;4954306;28;20055;-75
2022/04/16 01:27:53;;;;;;;6.03;3.28;;;;;;;15.40;53.05;102920.69;4953194;28;20030;-73
2022/04/16 01:30:23;;;;;;;4.70;3.17;;;;;;;15.40;53.02;102919.00;4936468;28;20041;-74
2022/04/16 01:32:50;;;;;;;5.32;3.53;;;;;;;15.40;53.20;102921.63;4936106;28;20023;-76
2022/04/16 01:35:16;;;;;;;5.72;3.47;;;;;;;15.39;53.05;102918.91;4935221;28;20373;-74
2022/04/16 01:37:42;;;;;;;3.97;2.60;;;;;;;15.40;53.27;102921.63;4937493;28;20031;-76
2022/04/16 01:40:09;;;;;;;5.32;3.30;;;;;;;15.38;53.13;102925.84;4936490;28;20030;-76
2022/04/16 01:42:36;;;;;;;5.28;3.20;;;;;;;15.38;53.19;102936.22;4953934;28;20033;-77
2022/04/16 01:45:03;;;;;;;5.40;3.20;;;;;;;15.37;53.21;102929.25;4936099;28;20035;-75
2022/04/16 01:47:29;;;;;;;5.97;3.83;;;;;;;15.37;53.13;102928.38;4953024;28;20620;-73
2022/04/16 01:49:56;;;;;;;4.95;3.20;;;;;;;15.38;53.02;102938.84;4953267;28;20014;-76
2022/04/16 01:52:24;;;;;;;5.10;3.50;;;;;;;15.38;53.02;102931.03;4953237;28;20034;-75
2022/04/16 01:54:50;;;;;;;5.53;3.33;;;;;;;15.38;53.06;102935.34;4953080;28;20058;-76
2022/04/16 01:57:20;;;;;;;5.13;3.15;;;;;;;15.35;53.15;102922.22;4950324;28;20402;-75
2022/04/16 01:59:46;;;;;;;6.28;3.55;;;;;;;15.35;53.07;102925.72;4935377;28;20023;-75
2022/04/16 02:02:12;;;;;;;6.03;3.85;;;;;;;15.35;52.89;102919.63;4951950;28;20026;-75
2022/04/16 02:04:38;;;;;;;8.10;3.97;;;;;;;15.36;53.02;102922.28;4953318;28;20023;-77
2022/04/16 02:07:03;;;;;;;5.72;3.60;;;;;;;15.34;53.11;102923.94;4936109;28;20459;-77
2022/04/16 02:09:29;;;;;;;5.72;3.28;;;;;;;15.36;53.07;102924.88;4950734;28;20232;-74
2022/04/16 02:11:54;;;;;;;5.75;3.30;;;;;;;15.36;53.00;102935.25;4953152;28;20030;-76
2022/04/16 02:14:21;;;;;;;5.80;3.60;;;;;;;15.36;53.08;102921.41;4953071;28;20015;-74
2022/04/16 02:16:47;;;;;;;5.53;3.47;;;;;;;15.34;52.91;102913.53;4937944;28;20436;-77
2022/04/16 02:19:14;;;;;;;5.90;3.63;;;;;;;15.34;52.73;102923.94;4952613;28;20037;-75
2022/04/16 02:21:39;;;;;;;7.00;3.92;;;;;;;15.34;53.00;102923.94;4953744;28;20023;-75
2022/04/16 02:24:06;;;;;;;5.43;3.33;;;;;;;15.33;53.06;102922.16;4936469;28;20325;-77
2022/04/16 02:26:32;;;;;;;5.03;3.13;;;;;;;15.33;52.97;102927.34;4952406;28;20023;-75
2022/04/16 02:28:59;;;;;;;5.15;3.40;;;;;;;15.30;52.97;102917.72;4953069;28;20105;-77
2022/04/16 02:31:25;;;;;;;5.53;3.45;;;;;;;15.32;52.71;102930.75;4951433;28;20409;-75
2022/04/16 02:33:51;;;;;;;6.25;3.85;;;;;;;15.32;52.93;102920.38;4951777;28;20034;-77
2022/04/16 02:36:16;;;;;;;5.55;3.53;;;;;;;15.32;52.90;102930.75;4935969;28;20117;-74
2022/04/16 02:38:42;;;;;;;6.00;3.70;;;;;;;15.31;52.83;102934.19;4934786;28;20019;-78
2022/04/16 02:41:07;;;;;;;7.82;3.90;;;;;;;15.29;52.74;102936.72;4953241;28;20018;-75
2022/04/16 02:43:32;;;;;;;5.70;4.07;;;;;;;15.32;52.92;102938.56;4951899;28;20022;-77
2022/04/16 02:48:42;;;;;;;6.70;4.13;;;;;;;15.31;52.80;102936.78;4951524;28;20543;-74
2022/04/16 02:51:08;;;;;;;6.40;4.10;;;;;;;15.30;52.47;102937.63;4953100;28;20102;-75
2022/04/16 02:53:34;;;;;;;8.50;3.85;;;;;;;15.31;52.54;102941.97;4951528;28;20018;-75
2022/04/16 02:56:00;;;;;;;5.72;3.72;;;;;;;15.30;52.68;102948.00;4950741;28;20137;-77
2022/04/16 02:58:26;;;;;;;5.43;3.42;;;;;;;15.28;52.64;102947.91;4951966;28;20177;-77
2022/04/16 03:00:54;;;;;;;7.18;4.65;;;;;;;15.30;52.60;102953.22;4935359;28;20345;-74
2022/04/16 03:03:20;;;;;;;8.55;5.15;;;;;;;15.29;52.22;102952.31;4951664;28;20031;-77
2022/04/16 03:05:45;;;;;;;9.38;4.68;;;;;;;15.28;52.32;102949.66;4951423;28;20034;-74
2022/04/16 03:08:12;;;;;;;8.55;5.40;;;;;;;15.27;52.36;102953.06;4935293;28;20093;-77
2022/04/16 03:10:38;;;;;;;8.93;4.87;;;;;;;15.27;52.42;102955.66;4952164;28;20046;-77
2022/04/16 03:13:04;;;;;;;8.20;5.45;;;;;;;15.26;51.75;102953.88;4935123;28;20285;-74
2022/04/16 03:18:13;;;;;;;6.95;4.22;;;;;;;15.26;52.63;102956.47;4951706;28;20042;-74
2022/04/16 03:20:40;;;;;;;6.03;4.22;;;;;;;15.25;52.53;102949.53;4934952;28;20062;-77
2022/04/16 03:23:06;;;;;;;6.53;3.90;;;;;;;15.26;52.58;102956.47;4953033;28;20114;-74
2022/04/16 03:25:31;;;;;;;6.53;4.00;;;;;;;15.24;52.52;102950.34;4950056;28;20440;-77
2022/04/16 03:27:57;;;;;;;6.65;3.70;;;;;;;15.24;52.57;102947.75;4952405;28;20023;-75
2022/04/16 03:30:24;;;;;;;5.63;3.72;;;;;;;15.24;52.31;102948.63;4951339;28;20117;-75
2022/04/16 03:32:51;;;;;;;5.47;3.63;;;;;;;15.24;52.62;102961.59;4933671;28;20066;-77
2022/04/16 03:35:21;;;;;;;8.23;5.25;;;;;;;15.24;52.58;102963.31;4950423;28;20042;-77
2022/04/16 03:37:46;;;;;;;6.80;4.40;;;;;;;15.23;52.25;102958.94;4949659;28;20018;-77
2022/04/16 03:40:15;;;;;;;6.32;4.15;;;;;;;15.23;52.33;102956.34;4950129;28;20050;-75
2022/04/16 03:42:45;;;;;;;7.28;3.80;;;;;;;15.24;52.50;102963.31;4933889;28;20031;-75
2022/04/16 03:45:22;;;;;;;8.70;4.93;;;;;;;15.24;52.11;102963.31;4949616;28;20109;-78
2022/04/16 03:47:48;;;;;;;;;;;;;;;15.34;52.18;102960.31;4952628;28;20018;-77
2022/04/16 03:50:14;;;;;;;6.35;3.85;;;;;;;15.23;52.06;102956.34;4950687;28;20307;-77
2022/04/16 03:52:44;;;;;;;7.20;4.35;;;;;;;15.22;52.44;102960.66;4952468;28;20034;-76
2022/04/16 04:00:48;;;;;;;5.53;3.50;;;;;;;15.22;52.25;102959.75;4952535;28;20125;-75
2022/04/16 04:03:14;;;;;;;7.93;3.70;;;;;;;15.22;52.37;102962.34;4950574;28;20015;-77
2022/04/16 04:05:41;;;;;;;5.72;3.72;;;;;;;15.21;52.47;102964.06;4952052;28;20023;-75
2022/04/16 04:08:07;;;;;;;6.00;3.63;;;;;;;15.21;52.46;102965.78;4954379;28;20106;-76
2022/04/16 04:10:33;;;;;;;5.90;3.78;;;;;;;15.20;52.41;102961.41;4939653;28;20031;-77
2022/04/16 04:12:59;;;;;;;7.65;4.43;;;;;;;15.20;51.87;102958.81;4954599;28;20613;-74
2022/04/16 04:15:26;;;;;;;7.22;5.45;;;;;;;15.18;52.07;102963.03;4954289;28;20044;-76
2022/04/16 04:17:51;;;;;;;6.35;3.92;;;;;;;15.19;52.35;102967.44;4954209;28;20027;-76
2022/04/16 04:20:17;;;;;;;5.88;3.92;;;;;;;15.20;52.08;102964.03;4954365;28;20053;-74
2022/04/16 04:22:42;;;;;;;7.60;4.60;;;;;;;15.19;52.12;102976.09;4937625;28;20049;-74
2022/04/16 04:25:08;;;;;;;7.28;4.28;;;;;;;15.18;52.33;102973.44;4953923;28;20105;-74
2022/04/16 04:27:33;;;;;;;8.23;4.20;;;;;;;15.17;52.29;102976.84;4954618;28;20440;-76
2022/04/16 04:30:02;;;;;;;6.00;3.88;;;;;;;15.19;52.43;102985.63;4954787;28;20419;-77
2022/04/16 04:32:30;;;;;;;7.20;4.65;;;;;;;15.18;52.32;102978.63;4954217;28;20034;-74
2022/04/16 04:34:56;;;;;;;6.00;3.95;;;;;;;15.17;52.20;102982.03;4954175;28;20054;-78
2022/04/16 04:37:22;;;;;;;6.53;3.97;;;;;;;15.18;52.21;102983.81;4954319;28;20105;-75
2022/04/16 04:39:48;;;;;;;6.68;4.60;;;;;;;15.16;52.40;102981.16;4937275;28;20042;-77
2022/04/16 04:42:31;;;;;;;7.10;4.75;;;;;;;15.17;51.80;102992.44;4953970;28;20015;-77
2022/04/16 04:44:57;;;;;;;9.30;5.78;;;;;;;15.16;51.22;103001.94;4936795;28;20029;-74
2022/04/16 04:47:23;;;;;;;8.73;6.38;;;;;;;15.16;51.29;103001.94;4953247;28;20034;-75
2022/04/16 04:49:48;;;;;;;9.48;5.90;;;;;;;15.13;51.29;103000.09;4954875;28;20030;-75
2022/04/16 04:52:21;;;;;;;8.63;5.82;;;;;;;15.17;51.21;103002.81;4953412;28;20506;-78
2022/04/16 04:54:47;;;;;;;8.20;5.35;;;;;;;15.14;51.50;103001.88;4954036;28;20018;-76
2022/04/16 04:57:15;;;;;;;9.27;6.40;;;;;;;15.13;51.30;103002.69;4953790;28;20332;-76
2022/04/16 04:59:41;;;;;;;8.93;5.22;;;;;;;15.13;51.19;103005.28;4936639;28;20039;-77
2022/04/16 05:02:06;;;;;;;7.40;4.75;;;;;;;15.15;51.90;103010.56;4954489;28;20352;-76
2022/04/16 05:04:32;;;;;;;8.15;5.10;;;;;;;15.13;50.98;103015.69;4954117;28;20031;-76
2022/04/16 05:06:57;;;;;;;11.05;6.68;;;;;;;15.13;50.73;103014.78;4936793;28;20082;-76
2022/04/16 05:09:23;;;;;;;7.65;4.93;;;;;;;15.12;51.07;103016.50;4953931;28;20460;-77
2022/04/16 05:11:49;;;;;;;7.70;4.80;;;;;;;15.13;51.69;103013.09;4937302;28;20034;-76
2022/04/16 05:14:15;;;;;;;8.98;6.05;;;;;;;15.14;51.54;103019.16;4935880;28;20023;-74
2022/04/16 05:16:41;;;;;;;7.00;4.25;;;;;;;15.12;51.36;103021.69;4937461;28;20105;-76
2022/04/16 05:19:06;;;;;;;9.95;6.25;;;;;;;15.13;50.88;103017.38;4952453;28;20122;-77
2022/04/16 05:21:31;;;;;;;5.65;3.97;;;;;;;15.12;51.88;103013.91;4954386;28;20018;-75
2022/04/16 05:23:57;;;;;;;7.93;4.75;;;;;;;15.13;51.57;103023.47;4920793;28;20082;-75
2022/04/16 05:26:22;;;;;;;7.78;4.72;;;;;;;15.12;51.27;103024.28;4954157;28;20027;-76
2022/04/16 05:28:47;;;;;;;7.30;4.88;;;;;;;15.13;51.12;103026.06;4935632;28;20023;-78
2022/04/16 05:31:13;;;;;;;6.18;4.13;;;;;;;15.13;51.58;103027.75;4952689;28;20440;-77
2022/04/16 05:36:22;;;;;;;7.75;4.13;;;;;;;15.13;51.66;103039.06;4953239;28;20097;-74
2022/04/16 05:38:48;;;;;;;7.05;3.70;;;;;;;15.12;51.29;103031.19;4952018;28;20074;-76
2022/04/16 05:41:13;;;;;;;7.80;4.90;;;;;;;15.11;51.39;103030.28;4938414;28;20057;-74
2022/04/16 05:43:38;;;;;;;7.82;4.75;;;;;;;15.12;51.11;103032.06;4952499;28;20054;-75
2022/04/16 05:46:04;;;;;;;5.75;3.72;;;;;;;15.11;51.76;103027.69;4953089;28;20456;-74
2022/04/16 05:48:29;;;;;;;6.50;4.30;;;;;;;15.11;51.62;103025.09;4935168;28;20027;-74
2022/04/16 05:50:57;;;;;;;9.32;5.20;;;;;;;15.11;51.13;103029.41;4936200;28;20039;-76
2022/04/16 05:53:23;;;;;;;5.90;4.22;;;;;;;15.11;51.31;103034.63;4953089;28;20440;-75
2022/04/16 05:55:50;;;;;;;7.20;4.32;;;;;;;15.11;51.42;103040.69;4935780;28;20050;-76
2022/04/16 05:58:15;;;;;;;7.25;4.40;;;;;;;15.10;51.44;103044.09;4953069;28;20050;-78
2022/04/16 06:00:41;;;;;;;6.38;3.83;;;;;;;15.11;51.66;103045.88;4951818;28;20058;-77
2022/04/16 06:03:07;;;;;;;6.53;3.55;;;;;;;15.09;52.03;103044.94;4936326;28;20015;-75
2022/04/16 06:05:32;;;;;;;6.50;4.15;;;;;;;15.11;51.14;103055.38;4935953;28;20440;-76
2022/04/16 06:07:58;;;;;;;7.68;4.03;;;;;;;15.09;51.71;103052.72;4952856;28;20479;-76
2022/04/16 06:10:24;;;;;;;5.95;4.15;;;;;;;15.10;51.49;103064.00;4952391;28;20086;-76
2022/04/16 06:12:49;;;;;;;6.70;4.20;;;;;;;15.11;51.50;103060.59;4951455;28;20051;-76
2022/04/16 06:15:15;;;;;;;5.60;3.72;;;;;;;15.11;52.01;103071.84;4920005;28;20117;-76
2022/04/16 06:17:40;;;;;;;6.35;3.80;;;;;;;15.09;51.88;103073.50;4951958;28;20023;-74
2022/04/16 06:20:07;;;;;;;6.50;3.58;;;;;;;15.11;51.96;103071.84;4952615;28;20039;-77
2022/04/16 06:22:33;;;;;;;6.28;3.20;;;;;;;15.10;51.76;103072.66;4952214;28;20225;-76
2022/04/16 06:24:58;;;;;;;5.72;3.65;;;;;;;15.11;51.67;103079.63;4951854;28;20524;-76
2022/04/16 06:27:23;;;;;;;5.28;3.30;;;;;;;15.10;51.80;103080.44;4950732;28;20093;-76
2022/04/16 06:29:49;;;;;;;5.85;3.60;;;;;;;15.09;51.76;103076.09;4934947;28;20015;-76
2022/04/16 06:32:14;;;;;;;6.40;3.97;;;;;;;15.10;51.83;103075.25;4950456;28;20042;-76
2022/04/16 06:34:39;;;;;;;5.80;3.88;;;;;;;15.11;52.04;103077.03;4951083;28;20453;-76
2022/04/16 06:37:05;;;;;;;6.47;3.78;;;;;;;15.11;51.62;103077.03;4952453;28;20475;-75
2022/04/16 06:39:30;;;;;;;5.95;3.70;;;;;;;15.12;52.02;103073.63;4934642;28;20089;-75
2022/04/16 06:41:55;;;;;;;6.28;3.80;;;;;;;15.08;52.09;103076.91;4950449;28;20093;-75
2022/04/16 06:44:21;;;;;;;6.63;4.68;;;;;;;15.09;52.22;103076.09;4951570;28;20035;-75
2022/04/16 06:46:46;;;;;;;6.43;4.10;;;;;;;15.11;51.83;103079.63;4951609;28;20093;-76
2022/04/16 06:49:11;;;;;;;8.15;4.32;;;;;;;15.11;52.09;103084.84;4931362;28;20030;-75
2022/04/16 06:51:37;;;;;;;6.43;4.13;;;;;;;15.11;51.91;103081.38;4953939;28;20023;-74
2022/04/16 06:54:02;;;;;;;8.77;4.00;;;;;;;15.10;52.06;103080.44;4953617;28;20080;-74
2022/04/16 06:56:27;;;;;;;6.35;4.25;;;;;;;15.12;52.13;103084.03;4950549;28;20770;-76
2022/04/16 06:58:53;;;;;;;7.22;4.50;;;;;;;15.11;51.99;103084.84;4952481;28;20026;-74
2022/04/16 07:01:18;;;;;;;7.45;4.45;;;;;;;15.11;52.22;103077.03;4950258;28;20031;-74
2022/04/16 07:03:43;;;;;;;6.45;4.47;;;;;;;15.10;52.03;103080.44;4954902;28;20096;-75
2022/04/16 07:06:09;;;;;;;9.80;5.53;;;;;;;15.11;52.50;103086.56;4953338;28;20107;-76
2022/04/16 07:08:34;;;;;;;9.15;5.65;;;;;;;15.12;52.23;103098.72;4952505;28;20110;-76
2022/04/16 07:10:59;;;;;;;8.73;4.88;;;;;;;15.10;52.02;103098.63;4933738;28;20658;-74
2022/04/16 07:13:25;;;;;;;8.02;5.00;;;;;;;15.10;52.09;103098.63;4952349;28;20456;-76
2022/04/16 07:15:53;;;;;;;10.57;5.72;;;;;;;15.11;52.16;103094.34;4950345;28;20476;-76
2022/04/16 07:18:21;;;;;;;8.88;5.50;;;;;;;15.09;52.18;103094.28;4951486;28;20061;-76
2022/04/16 07:20:47;;;;;;;8.88;5.78;;;;;;;15.11;52.24;103097.81;4951514;28;20034;-76
2022/04/16 07:23:12;;;;;;;9.05;5.53;;;;;;;15.11;52.37;103105.63;4950337;28;20026;-74
2022/04/16 07:25:37;;;;;;;8.40;5.15;;;;;;;15.12;52.16;103094.41;4935555;28;20045;-76
2022/04/16 07:28:03;;;;;;;8.93;5.68;;;;;;;15.11;52.24;103090.03;4934340;28;20019;-74
2022/04/16 07:30:29;;;;;;;9.68;5.85;;;;;;;15.09;52.24;103089.09;4952341;28;20313;-77
2022/04/16 07:32:54;;;;;;;8.85;5.47;;;;;;;15.09;52.28;103099.47;4950915;28;20046;-76
2022/04/16 07:35:20;;;;;;;8.25;5.72;;;;;;;15.08;52.47;103092.50;4951161;28;20162;-74
2022/04/16 07:37:48;;;;;;;9.43;6.03;;;;;;;15.11;52.17;103096.94;4951250;28;20011;-76
2022/04/16 07:40:13;;;;;;;10.85;6.45;;;;;;;15.09;52.06;103102.06;4950660;28;20039;-76
2022/04/16 07:42:39;;;;;;;9.20;5.60;;;;;;;15.10;52.24;103106.44;4955164;28;20030;-74
2022/04/16 07:45:05;;;;;;;8.30;5.57;;;;;;;15.08;52.21;103101.97;4955075;28;20034;-75
2022/04/16 07:47:30;;;;;;;9.00;6.40;;;;;;;15.09;52.28;103108.97;4938207;28;20038;-75
2022/04/16 07:49:56;;;;;;;9.05;5.38;;;;;;;15.08;52.43;103097.69;4953463;28;20692;-77
2022/04/16 07:52:24;;;;;;;8.75;5.50;;;;;;;15.11;52.28;103108.22;4954945;28;20652;-74
2022/04/16 07:54:53;;;;;;;10.27;5.65;;;;;;;15.10;52.21;103101.22;4953793;28;20113;-76
2022/04/16 07:57:18;;;;;;;9.35;5.93;;;;;;;15.09;52.18;103094.28;4952068;28;20021;-74
2022/04/16 07:59:44;;;;;;;9.88;6.10;;;;;;;15.10;52.32;103106.44;4938320;28;20035;-74
2022/04/16 08:02:09;;;;;;;10.82;6.72;;;;;;;15.09;52.40;103103.75;4954586;28;20031;-76
2022/04/16 08:04:34;;;;;;;9.27;5.43;;;;;;;15.10;52.37;103109.03;4956144;28;20050;-75
2022/04/16 08:07:00;;;;;;;10.48;6.35;;;;;;;15.08;52.29;103100.28;4954565;28;20031;-74
2022/04/16 08:09:25;;;;;;;13.93;6.68;;;;;;;15.11;52.26;103102.13;4954669;28;20023;-76
2022/04/16 08:11:50;;;;;;;10.48;6.50;;;;;;;15.11;52.22;103113.41;4936599;28;20046;-76
2022/04/16 08:14:16;;;;;;;11.45;6.38;;;;;;;15.10;52.55;103106.44;4954881;28;20019;-75
2022/04/16 08:16:41;;;;;;;10.95;6.20;;;;;;;15.11;52.42;103113.41;4937189;28;20333;-74
2022/04/16 08:19:07;;;;;;;11.25;6.70;;;;;;;15.09;52.41;103099.47;4955688;28;20031;-74
2022/04/16 08:21:34;;;;;;;9.68;5.90;;;;;;;15.09;52.64;103102.06;4952648;28;20516;-75
2022/04/16 08:24:13;;;;;;;12.13;6.38;;;;;;;15.09;52.45;103101.16;4954355;28;20085;-74
2022/04/16 08:26:40;;;;;;;9.40;6.55;;;;;;;15.09;52.45;103109.88;4955980;28;20113;-76
2022/04/16 08:29:07;;;;;;;10.93;6.27;;;;;;;15.10;52.42;103111.63;4956177;28;20014;-74
2022/04/16 08:31:33;;;;;;;10.63;6.17;;;;;;;15.11;52.47;103115.13;4952957;28;20275;-75
2022/04/16 08:33:59;;;;;;;9.60;6.13;;;;;;;15.10;52.35;103111.63;4954957;28;20078;-73
2022/04/16 08:36:25;;;;;;;10.98;6.85;;;;;;;15.10;52.49;103116.81;4953195;28;20059;-75
2022/04/16 08:38:50;;;;;;;10.35;6.55;;;;;;;15.09;52.55;103115.06;4954292;28;20093;-74
2022/04/16 08:41:16;;;;;;;10.50;6.60;;;;;;;15.10;52.38;103114.22;4937323;28;20109;-74
2022/04/16 08:43:42;;;;;;;11.10;6.65;;;;;;;15.10;52.39;103116.81;4953970;28;20038;-77
2022/04/16 08:46:08;;;;;;;9.95;6.47;;;;;;;15.09;52.43;103115.06;4953528;28;20668;-76
2022/04/16 08:48:33;;;;;;;14.00;6.95;;;;;;;15.10;52.53;103119.41;4953285;28;20022;-76
2022/04/16 08:50:59;;;;;;;10.85;6.72;;;;;;;15.11;52.63;103121.19;4954024;28;20081;-75
2022/04/16 08:53:25;;;;;;;11.07;6.97;;;;;;;15.10;52.45;103127.19;4934657;28;20027;-76
2022/04/16 08:55:50;;;;;;;11.13;6.47;;;;;;;15.10;52.51;103116.81;4954411;28;20019;-76
2022/04/16 08:58:16;;;;;;;10.60;6.53;;;;;;;15.10;52.51;103115.94;4953926;28;20360;-74
2022/04/16 09:00:41;;;;;;;10.85;6.57;;;;;;;15.10;52.54;103115.94;4955414;28;24535;-73
2022/04/16 09:03:09;;;;;;;11.23;6.95;;;;;;;15.10;52.26;103109.03;4953735;28;20023;-76
2022/04/16 09:05:34;;;;;;;;;;;;;;;15.22;52.24;103116.53;4936471;28;20026;-76
2022/04/16 09:08:03;;;;;;;11.05;6.25;;;;;;;15.13;52.54;103113.47;4953310;28;19929;-75
2022/04/16 09:10:30;;;;;;;10.35;6.35;;;;;;;15.12;52.61;103120.38;4952155;28;20050;-73
2022/04/16 09:12:58;;;;;;;11.32;6.05;;;;;;;15.12;52.47;103110.00;4952559;28;20390;-75
2022/04/16 09:15:25;;;;;;;10.52;6.50;;;;;;;15.11;52.47;103109.94;4936635;28;20053;-76
2022/04/16 09:17:58;;;;;;;8.93;6.30;;;;;;;15.13;52.48;103110.88;4953566;28;20029;-74
2022/04/16 09:20:29;;;;;;;10.23;6.40;;;;;;;15.10;52.55;103116.81;4953193;28;20050;-76
2022/04/16 09:22:55;;;;;;;11.75;6.68;;;;;;;15.11;52.39;103110.81;4952770;28;20440;-76
2022/04/16 09:25:20;;;;;;;9.95;6.57;;;;;;;15.11;52.36;103105.63;4936617;28;20027;-73
2022/04/16 09:27:49;;;;;;;9.98;6.55;;;;;;;15.10;52.45;103103.81;4953177;28;20018;-75
2022/04/16 09:30:32;;;;;;;10.60;6.40;;;;;;;15.12;52.59;103107.41;4953131;28;20019;-74
2022/04/16 09:32:59;;;;;;;10.35;6.22;;;;;;;15.11;52.48;103107.34;4952274;28;20014;-73
2022/04/16 09:35:33;;;;;;;13.23;6.38;;;;;;;15.12;52.53;103102.22;4935931;28;20495;-74
2022/04/16 09:38:03;;;;;;;11.38;6.28;;;;;;;15.12;52.59;103094.41;4953721;28;20046;-74
2022/04/16 09:40:33;;;;;;;9.07;6.00;;;;;;;15.11;52.38;103113.41;4953642;28;20096;-76
2022/04/16 09:43:02;;;;;;;9.10;6.00;;;;;;;15.12;52.65;103109.13;4952361;28;20199;-76
2022/04/16 09:45:28;;;;;;;11.50;6.03;;;;;;;15.12;52.56;103098.72;4953519;28;20022;-76
2022/04/16 09:47:54;;;;;;;9.02;5.95;;;;;;;15.12;52.65;103099.59;4952942;28;20111;-76
2022/04/16 09:50:25;;;;;;;9.80;5.75;;;;;;;15.12;52.72;103102.22;4953492;28;20038;-76
2022/04/16 09:52:55;;;;;;;9.77;6.53;;;;;;;15.12;52.73;103098.72;4952654;28;20034;-73
2022/04/16 09:55:23;;;;;;;10.73;6.85;;;;;;;15.11;52.86;103089.16;4951672;28;20027;-73
2022/04/16 09:57:52;;;;;;;9.50;6.10;;;;;;;15.12;52.80;103094.41;4935502;28;20045;-76
2022/04/16 10:00:18;;;;;;;9.75;6.15;;;;;;;15.14;52.75;103097.06;4951919;28;20030;-76
2022/04/16 10:02:44;;;;;;;9.95;6.60;;;;;;;15.14;52.75;103097.06;4935290;28;20105;-76
2022/04/16 10:05:10;;;;;;;10.07;6.65;;;;;;;15.14;52.82;103091.88;4953085;28;20023;-76
2022/04/16 10:07:37;;;;;;;10.65;6.40;;;;;;;15.14;52.93;103094.47;4951822;28;20049;-76
2022/04/16 10:10:06;;;;;;;11.97;6.43;;;;;;;15.15;52.84;103088.47;4952710;28;20041;-73
2022/04/16 10:15:23;;;;;;;9.68;6.18;;;;;;;15.15;52.69;103083.28;4951376;28;20579;-76
2022/04/16 10:17:50;;;;;;;9.77;6.50;;;;;;;15.15;52.90;103084.16;4931314;28;20421;-75
2022/04/16 10:20:18;;;;;;;9.65;6.35;;;;;;;15.15;52.84;103084.16;4950758;28;20056;-74
2022/04/16 10:23:03;;;;;;;10.80;6.57;;;;;;;15.17;52.86;103076.47;4948476;28;20154;-76
2022/04/16 10:25:44;;;;;;;8.93;6.13;;;;;;;15.18;52.92;103077.34;4950122;28;20027;-76
2022/04/16 10:28:16;;;;;;;10.13;6.28;;;;;;;15.17;52.94;103081.66;4950489;28;20039;-76
2022/04/16 10:30:51;;;;;;;9.25;6.43;;;;;;;15.17;52.86;103092.03;4950643;28;20042;-74
2022/04/16 10:33:27;;;;;;;9.60;6.15;;;;;;;15.19;52.95;103082.59;4950647;28;20105;-74
2022/04/16 10:35:57;;;;;;;10.43;5.85;;;;;;;15.18;52.99;103087.72;4952143;28;20077;-76
2022/04/16 10:38:24;;;;;;;10.15;6.68;;;;;;;15.17;52.98;103086.84;4936483;28;20035;-74
2022/04/16 10:41:01;;;;;;;9.88;6.15;;;;;;;15.20;53.04;103086.09;4950604;28;20023;-74
2022/04/16 10:43:32;;;;;;;8.02;5.38;;;;;;;15.18;53.06;103082.53;4951062;28;20715;-75
2022/04/16 10:46:02;;;;;;;10.23;6.03;;;;;;;15.19;52.89;103092.09;4950073;28;20027;-76
2022/04/16 10:48:31;;;;;;;9.07;5.75;;;;;;;15.19;52.94;103086.91;4951373;28;20041;-77
2022/04/16 10:51:00;;;;;;;11.40;6.18;;;;;;;15.18;52.98;103091.19;4952726;28;20025;-74
2022/04/16 10:53:33;;;;;;;9.10;5.30;;;;;;;15.18;52.91;103077.34;4951215;28;20035;-77
2022/04/16 10:56:31;;;;;;;10.20;5.35;;;;;;;15.25;52.81;103087.19;4935209;28;20034;-77
2022/04/16 10:59:00;;;;;;;9.13;6.07;;;;;;;15.19;52.97;103084.31;4910757;28;20045;-77
2022/04/16 11:01:29;;;;;;;7.97;5.85;;;;;;;15.19;52.81;103084.31;4952060;28;20416;-74
2022/04/16 11:03:56;;;;;;;9.93;5.38;;;;;;;15.20;53.06;103086.09;4952762;28;20026;-73
2022/04/16 11:06:33;;;;;;;9.10;5.63;;;;;;;15.21;52.97;103088.75;4950097;28;20030;-74
2022/04/16 11:08:59;;;;;;;9.73;5.70;;;;;;;15.20;53.00;103076.59;4935470;28;20043;-73
2022/04/16 11:11:24;;;;;;;7.60;5.35;;;;;;;15.20;53.11;103078.31;4950998;28;20046;-74
2022/04/16 11:13:50;;;;;;;7.97;5.20;;;;;;;15.21;52.97;103074.88;4954264;28;20019;-74
2022/04/16 11:16:20;;;;;;;7.43;5.22;;;;;;;15.20;52.94;103079.19;4941394;28;20333;-76
2022/04/16 11:18:47;;;;;;;9.15;5.60;;;;;;;15.20;52.98;103079.19;4956443;28;20436;-76
2022/04/16 11:21:24;;;;;;;8.75;4.90;;;;;;;15.22;52.92;103072.38;4940233;28;20070;-76
2022/04/16 11:23:52;;;;;;;7.35;5.22;;;;;;;15.24;53.01;103075.03;4956385;28;20010;-74
2022/04/16 11:34:43;;;;;;;7.75;4.85;;;;;;;15.24;52.91;103075.03;4958422;28;20061;-75
2022/04/16 11:37:09;;;;;;;6.90;4.75;;;;;;;15.23;53.02;103066.31;4956041;28;20109;-77
2022/04/16 11:39:35;;;;;;;7.75;4.90;;;;;;;15.24;53.02;103068.09;4955557;28;20058;-73
2022/04/16 11:42:10;;;;;;;7.38;5.03;;;;;;;15.25;52.92;103061.22;4953769;28;20033;-76
2022/04/16 11:44:45;;;;;;;6.43;4.53;;;;;;;15.25;52.89;103063.81;4954824;28;20106;-75
2022/04/16 11:47:15;;;;;;;6.70;4.47;;;;;;;15.25;52.95;103063.81;4954178;28;20047;-74